sensor_id;sensor_type;location;lat;lon;timestamp;pressure;altitude;pressure_sealevel;temperature;humidity
32330;BME280;18807;52.434;13.238;2022-11-02T00:03:19;101498.38;;;8.84;100.00
32330;BME280;18807;52.434;13.238;2022-11-02T00:10:54;101497.22;;;8.76;100.00
32330;BME280;18807;52.434;13.238;2022-11-02T00:18:28;101499.78;;;8.73;100.00
32330;BME280;18807;52.434;13.238;2022-11-02T00:26:04;101494.25;;;8.67;100.00
32330;BME280;18807;52.434;13.238;2022-11-02T00:33:38;101501.22;;;8.64;100.00
32330;BME280;18807;52.434;13.238;2022-11-02T00:41:13;101493.50;;;8.46;100.00
32330;BME280;18807;52.434;13.238;2022-11-02T00:48:47;101505.59;;;8.37;100.00
32330;BME280;18807;52.434;13.238;2022-11-02T00:56:22;101509.69;;;8.27;100.00
32330;BME280;18807;52.434;13.238;2022-11-02T01:03:56;101496.69;;;8.12;100.00
32330;BME280;18807;52.434;13.238;2022-11-02T01:11:31;101505.69;;;8.16;100.00
32330;BME280;18807;52.434;13.238;2022-11-02T01:19:06;101503.97;;;8.18;100.00
32330;BME280;18807;52.434;13.238;2022-11-02T01:26:42;101507.00;;;8.03;100.00
32330;BME280;18807;52.434;13.238;2022-11-02T01:34:16;101503.19;;;7.97;100.00
32330;BME280;18807;52.434;13.238;2022-11-02T01:41:51;101485.94;;;7.86;100.00
32330;BME280;18807;52.434;13.238;2022-11-02T01:49:27;101478.75;;;7.83;100.00
32330;BME280;18807;52.434;13.238;2022-11-02T01:57:06;101484.91;;;7.82;100.00
32330;BME280;18807;52.434;13.238;2022-11-02T02:04:42;101478.91;;;7.88;100.00
32330;BME280;18807;52.434;13.238;2022-11-02T02:12:18;101476.78;;;7.78;100.00
32330;BME280;18807;52.434;13.238;2022-11-02T02:19:56;101474.84;;;7.74;100.00
32330;BME280;18807;52.434;13.238;2022-11-02T02:27:41;101467.34;;;7.62;100.00
32330;BME280;18807;52.434;13.238;2022-11-02T02:35:22;101462.00;;;7.62;100.00
32330;BME280;18807;52.434;13.238;2022-11-02T02:43:02;101470.00;;;7.62;100.00
32330;BME280;18807;52.434;13.238;2022-11-02T02:50:40;101448.72;;;7.62;100.00
32330;BME280;18807;52.434;13.238;2022-11-02T02:58:19;101456.41;;;7.55;100.00
32330;BME280;18807;52.434;13.238;2022-11-02T03:06:02;101457.22;;;7.54;100.00
32330;BME280;18807;52.434;13.238;2022-11-02T03:13:44;101461.47;;;7.49;100.00
32330;BME280;18807;52.434;13.238;2022-11-02T03:21:23;101459.53;;;7.45;100.00
32330;BME280;18807;52.434;13.238;2022-11-02T03:29:06;101456.00;;;7.44;100.00
32330;BME280;18807;52.434;13.238;2022-11-02T03:36:44;101462.00;;;7.40;100.00
32330;BME280;18807;52.434;13.238;2022-11-02T03:44:23;101456.56;;;7.37;100.00
32330;BME280;18807;52.434;13.238;2022-11-02T03:52:02;101457.56;;;7.39;100.00
32330;BME280;18807;52.434;13.238;2022-11-02T03:59:38;101460.50;;;7.47;100.00
32330;BME280;18807;52.434;13.238;2022-11-02T04:07:12;101456.28;;;7.52;100.00
32330;BME280;18807;52.434;13.238;2022-11-02T04:14:47;101454.63;;;7.55;100.00
32330;BME280;18807;52.434;13.238;2022-11-02T04:22:21;101452.03;;;7.57;100.00
32330;BME280;18807;52.434;13.238;2022-11-02T04:30:17;101444.78;;;7.53;100.00
32330;BME280;18807;52.434;13.238;2022-11-02T04:37:51;101464.38;;;7.55;100.00
32330;BME280;18807;52.434;13.238;2022-11-02T04:45:44;101462.47;;;7.52;100.00
32330;BME280;18807;52.434;13.238;2022-11-02T04:53:17;101458.09;;;7.53;100.00
32330;BME280;18807;52.434;13.238;2022-11-02T05:00:52;101459.88;;;7.54;100.00
32330;BME280;18807;52.434;13.238;2022-11-02T05:08:26;101455.44;;;7.53;100.00
32330;BME280;18807;52.434;13.238;2022-11-02T05:16:01;101460.63;;;7.50;100.00
32330;BME280;18807;52.434;13.238;2022-11-02T05:23:35;101455.19;;;7.47;100.00
32330;BME280;18807;52.434;13.238;2022-11-02T05:31:11;101450.78;;;7.47;100.00
32330;BME280;18807;52.434;13.238;2022-11-02T05:38:45;101452.28;;;7.41;100.00
32330;BME280;18807;52.434;13.238;2022-11-02T05:46:20;101463.78;;;7.40;100.00
32330;BME280;18807;52.434;13.238;2022-11-02T05:53:53;101448.66;;;7.39;100.00
32330;BME280;18807;52.434;13.238;2022-11-02T06:01:29;101451.31;;;7.39;100.00
32330;BME280;18807;52.434;13.238;2022-11-02T06:09:03;101457.50;;;7.38;100.00
32330;BME280;18807;52.434;13.238;2022-11-02T06:16:40;101452.19;;;7.38;100.00
32330;BME280;18807;52.434;13.238;2022-11-02T06:24:13;101448.59;;;7.37;100.00
32330;BME280;18807;52.434;13.238;2022-11-02T06:31:49;101467.25;;;7.39;100.00
32330;BME280;18807;52.434;13.238;2022-11-02T06:39:23;101462.06;;;7.42;100.00
32330;BME280;18807;52.434;13.238;2022-11-02T06:46:58;101480.78;;;7.45;100.00
32330;BME280;18807;52.434;13.238;2022-11-02T06:54:32;101481.16;;;7.54;100.00
32330;BME280;18807;52.434;13.238;2022-11-02T07:02:07;101487.69;;;7.62;100.00
32330;BME280;18807;52.434;13.238;2022-11-02T07:09:41;101481.84;;;7.72;100.00
32330;BME280;18807;52.434;13.238;2022-11-02T07:17:16;101488.44;;;7.81;100.00
32330;BME280;18807;52.434;13.238;2022-11-02T07:24:50;101477.09;;;8.34;100.00
32330;BME280;18807;52.434;13.238;2022-11-02T07:32:25;101493.13;;;8.36;100.00
32330;BME280;18807;52.434;13.238;2022-11-02T07:39:59;101497.03;;;8.45;100.00
32330;BME280;18807;52.434;13.238;2022-11-02T07:47:40;101489.28;;;8.78;100.00
32330;BME280;18807;52.434;13.238;2022-11-02T07:55:15;101494.41;;;9.25;100.00
32330;BME280;18807;52.434;13.238;2022-11-02T08:02:54;101504.09;;;9.49;100.00
32330;BME280;18807;52.434;13.238;2022-11-02T08:10:30;101498.59;;;9.73;100.00
32330;BME280;18807;52.434;13.238;2022-11-02T08:18:14;101486.72;;;9.93;100.00
32330;BME280;18807;52.434;13.238;2022-11-02T08:25:49;101500.94;;;9.92;100.00
32330;BME280;18807;52.434;13.238;2022-11-02T08:33:24;101490.34;;;9.95;100.00
32330;BME280;18807;52.434;13.238;2022-11-02T08:40:58;101499.44;;;10.01;100.00
32330;BME280;18807;52.434;13.238;2022-11-02T08:48:33;101497.88;;;10.08;100.00
32330;BME280;18807;52.434;13.238;2022-11-02T08:56:07;101493.63;;;10.15;100.00
32330;BME280;18807;52.434;13.238;2022-11-02T09:03:42;101500.28;;;10.30;100.00
32330;BME280;18807;52.434;13.238;2022-11-02T09:11:16;101496.75;;;10.64;100.00
32330;BME280;18807;52.434;13.238;2022-11-02T09:18:51;101497.66;;;10.98;100.00
32330;BME280;18807;52.434;13.238;2022-11-02T09:26:24;101500.25;;;11.31;100.00
32330;BME280;18807;52.434;13.238;2022-11-02T09:34:00;101500.06;;;11.60;100.00
32330;BME280;18807;52.434;13.238;2022-11-02T09:41:38;101510.56;;;11.90;100.00
32330;BME280;18807;52.434;13.238;2022-11-02T09:49:17;101509.22;;;12.10;100.00
32330;BME280;18807;52.434;13.238;2022-11-02T09:56:55;101519.44;;;12.29;100.00
32330;BME280;18807;52.434;13.238;2022-11-02T10:04:47;101520.69;;;12.46;100.00
32330;BME280;18807;52.434;13.238;2022-11-02T10:12:26;101512.06;;;12.62;100.00
32330;BME280;18807;52.434;13.238;2022-11-02T10:20:06;101515.94;;;12.79;99.30
32330;BME280;18807;52.434;13.238;2022-11-02T10:27:48;101520.91;;;13.06;95.22
32330;BME280;18807;52.434;13.238;2022-11-02T10:35:33;101513.09;;;13.19;93.74
32330;BME280;18807;52.434;13.238;2022-11-02T10:43:38;101526.81;;;13.37;92.70
32330;BME280;18807;52.434;13.238;2022-11-02T10:51:24;101526.06;;;13.47;90.07
32330;BME280;18807;52.434;13.238;2022-11-02T10:59:02;101528.03;;;13.60;87.37
32330;BME280;18807;52.434;13.238;2022-11-02T11:06:39;101532.81;;;13.78;85.73
32330;BME280;18807;52.434;13.238;2022-11-02T11:14:16;101539.25;;;13.92;83.05
32330;BME280;18807;52.434;13.238;2022-11-02T11:22:24;101540.22;;;13.95;82.37
32330;BME280;18807;52.434;13.238;2022-11-02T11:29:58;101549.25;;;14.02;82.64
32330;BME280;18807;52.434;13.238;2022-11-02T11:37:33;101549.31;;;14.06;81.60
32330;BME280;18807;52.434;13.238;2022-11-02T11:45:13;101542.09;;;14.02;81.44
32330;BME280;18807;52.434;13.238;2022-11-02T11:53:07;101551.88;;;13.97;80.74
32330;BME280;18807;52.434;13.238;2022-11-02T12:00:42;101541.13;;;13.97;81.73
32330;BME280;18807;52.434;13.238;2022-11-02T12:08:27;101537.56;;;13.97;81.69
32330;BME280;18807;52.434;13.238;2022-11-02T12:16:12;101535.00;;;14.07;78.45
32330;BME280;18807;52.434;13.238;2022-11-02T12:31:44;101540.44;;;14.11;72.11
32330;BME280;18807;52.434;13.238;2022-11-02T12:39:26;101544.88;;;14.08;68.14
32330;BME280;18807;52.434;13.238;2022-11-02T12:47:12;101547.56;;;14.10;65.24
32330;BME280;18807;52.434;13.238;2022-11-02T12:54:53;101556.38;;;13.98;66.32
32330;BME280;18807;52.434;13.238;2022-11-02T13:02:30;101558.97;;;13.92;64.86
32330;BME280;18807;52.434;13.238;2022-11-02T13:10:14;101555.47;;;13.99;65.08
32330;BME280;18807;52.434;13.238;2022-11-02T13:17:51;101565.41;;;14.06;66.07
32330;BME280;18807;52.434;13.238;2022-11-02T13:25:32;101571.78;;;14.12;66.04
32330;BME280;18807;52.434;13.238;2022-11-02T13:33:11;101566.47;;;14.16;65.40
32330;BME280;18807;52.434;13.238;2022-11-02T13:40:56;101560.25;;;14.20;64.34
32330;BME280;18807;52.434;13.238;2022-11-02T13:48:40;101556.72;;;14.23;62.57
32330;BME280;18807;52.434;13.238;2022-11-02T13:56:22;101563.72;;;14.12;63.97
32330;BME280;18807;52.434;13.238;2022-11-02T14:04:02;101556.47;;;14.04;64.82
32330;BME280;18807;52.434;13.238;2022-11-02T14:11:47;101567.28;;;14.09;65.09
32330;BME280;18807;52.434;13.238;2022-11-02T14:19:22;101563.94;;;14.25;63.46
32330;BME280;18807;52.434;13.238;2022-11-02T14:26:58;101569.38;;;14.30;63.93
32330;BME280;18807;52.434;13.238;2022-11-02T14:34:51;101581.75;;;14.20;64.48
32330;BME280;18807;52.434;13.238;2022-11-02T14:42:40;101600.25;;;14.00;65.36
32330;BME280;18807;52.434;13.238;2022-11-02T14:50:19;101618.06;;;13.92;64.94
32330;BME280;18807;52.434;13.238;2022-11-02T14:57:57;101618.88;;;13.85;62.72
32330;BME280;18807;52.434;13.238;2022-11-02T15:05:39;101626.78;;;13.76;63.13
32330;BME280;18807;52.434;13.238;2022-11-02T15:13:35;101634.66;;;13.66;64.10
32330;BME280;18807;52.434;13.238;2022-11-02T15:21:26;101632.63;;;13.51;63.72
32330;BME280;18807;52.434;13.238;2022-11-02T15:29:03;101645.84;;;13.39;63.97
32330;BME280;18807;52.434;13.238;2022-11-02T15:36:40;101652.81;;;13.30;63.45
32330;BME280;18807;52.434;13.238;2022-11-02T15:44:34;101666.00;;;13.18;64.49
32330;BME280;18807;52.434;13.238;2022-11-02T15:52:19;101669.31;;;13.05;65.28
32330;BME280;18807;52.434;13.238;2022-11-02T16:08:03;101678.53;;;12.76;67.04
32330;BME280;18807;52.434;13.238;2022-11-02T16:15:44;101684.50;;;12.63;67.14
32330;BME280;18807;52.434;13.238;2022-11-02T16:23:22;101691.44;;;12.53;67.55
32330;BME280;18807;52.434;13.238;2022-11-02T16:31:11;101690.31;;;12.44;68.60
32330;BME280;18807;52.434;13.238;2022-11-02T16:38:56;101704.31;;;12.31;69.56
32330;BME280;18807;52.434;13.238;2022-11-02T16:46:40;101709.31;;;12.16;70.88
32330;BME280;18807;52.434;13.238;2022-11-02T16:54:27;101707.22;;;12.02;71.30
32330;BME280;18807;52.434;13.238;2022-11-02T17:02:03;101722.09;;;11.91;72.49
32330;BME280;18807;52.434;13.238;2022-11-02T17:09:38;101727.22;;;11.82;72.50
32330;BME280;18807;52.434;13.238;2022-11-02T17:17:33;101734.94;;;11.69;75.47
32330;BME280;18807;52.434;13.238;2022-11-02T17:25:11;101736.16;;;11.50;77.03
32330;BME280;18807;52.434;13.238;2022-11-02T17:32:47;101740.06;;;11.29;79.10
32330;BME280;18807;52.434;13.238;2022-11-02T17:40:21;101748.47;;;11.13;81.13
32330;BME280;18807;52.434;13.238;2022-11-02T17:47:58;101757.63;;;10.90;81.74
32330;BME280;18807;52.434;13.238;2022-11-02T17:55:33;101765.94;;;10.71;83.42
32330;BME280;18807;52.434;13.238;2022-11-02T18:03:13;101769.22;;;10.61;85.67
32330;BME280;18807;52.434;13.238;2022-11-02T18:10:50;101767.75;;;10.44;87.13
32330;BME280;18807;52.434;13.238;2022-11-02T18:18:25;101777.13;;;10.31;88.67
32330;BME280;18807;52.434;13.238;2022-11-02T18:25:59;101776.72;;;10.18;89.96
32330;BME280;18807;52.434;13.238;2022-11-02T18:33:34;101774.44;;;10.04;91.63
32330;BME280;18807;52.434;13.238;2022-11-02T18:41:09;101775.72;;;9.89;92.05
32330;BME280;18807;52.434;13.238;2022-11-02T18:48:58;101772.50;;;9.74;93.15
32330;BME280;18807;52.434;13.238;2022-11-02T18:56:33;101766.59;;;9.57;93.91
32330;BME280;18807;52.434;13.238;2022-11-02T19:04:09;101770.66;;;9.46;95.16
32330;BME280;18807;52.434;13.238;2022-11-02T19:11:51;101775.56;;;9.34;96.45
32330;BME280;18807;52.434;13.238;2022-11-02T19:19:27;101775.81;;;9.18;97.15
32330;BME280;18807;52.434;13.238;2022-11-02T19:27:01;101786.84;;;9.04;97.79
32330;BME280;18807;52.434;13.238;2022-11-02T19:34:36;101786.38;;;8.92;98.91
32330;BME280;18807;52.434;13.238;2022-11-02T19:42:10;101788.63;;;8.81;99.24
32330;BME280;18807;52.434;13.238;2022-11-02T19:49:45;101795.19;;;8.67;98.85
32330;BME280;18807;52.434;13.238;2022-11-02T19:57:19;101786.47;;;8.49;100.00
32330;BME280;18807;52.434;13.238;2022-11-02T20:04:54;101793.09;;;8.37;100.00
32330;BME280;18807;52.434;13.238;2022-11-02T20:12:28;101811.06;;;8.22;100.00
32330;BME280;18807;52.434;13.238;2022-11-02T20:20:07;101807.88;;;8.09;100.00
32330;BME280;18807;52.434;13.238;2022-11-02T20:27:41;101811.09;;;8.01;100.00
32330;BME280;18807;52.434;13.238;2022-11-02T20:35:18;101800.75;;;7.88;100.00
32330;BME280;18807;52.434;13.238;2022-11-02T20:42:56;101818.16;;;7.80;100.00
32330;BME280;18807;52.434;13.238;2022-11-02T20:50:32;101823.84;;;7.68;100.00
32330;BME280;18807;52.434;13.238;2022-11-02T20:58:07;101817.22;;;7.59;100.00
32330;BME280;18807;52.434;13.238;2022-11-02T21:05:42;101817.66;;;7.49;100.00
32330;BME280;18807;52.434;13.238;2022-11-02T21:13:16;101824.38;;;7.41;100.00
32330;BME280;18807;52.434;13.238;2022-11-02T21:21:10;101829.22;;;7.30;100.00
32330;BME280;18807;52.434;13.238;2022-11-02T21:28:45;101823.34;;;7.18;100.00
32330;BME280;18807;52.434;13.238;2022-11-02T21:36:20;101837.91;;;7.07;100.00
32330;BME280;18807;52.434;13.238;2022-11-02T21:43:54;101831.47;;;7.02;100.00
32330;BME280;18807;52.434;13.238;2022-11-02T21:51:29;101833.81;;;6.96;100.00
32330;BME280;18807;52.434;13.238;2022-11-02T21:59:03;101822.91;;;6.90;100.00
32330;BME280;18807;52.434;13.238;2022-11-02T22:06:39;101822.63;;;6.84;100.00
32330;BME280;18807;52.434;13.238;2022-11-02T22:14:13;101812.50;;;6.76;100.00
32330;BME280;18807;52.434;13.238;2022-11-02T22:21:48;101819.31;;;6.71;100.00
32330;BME280;18807;52.434;13.238;2022-11-02T22:29:22;101819.03;;;6.65;100.00
32330;BME280;18807;52.434;13.238;2022-11-02T22:36:58;101818.72;;;6.57;100.00
32330;BME280;18807;52.434;13.238;2022-11-02T22:44:51;101811.19;;;6.49;100.00
32330;BME280;18807;52.434;13.238;2022-11-02T22:52:27;101804.69;;;6.42;100.00
32330;BME280;18807;52.434;13.238;2022-11-02T23:00:02;101797.25;;;6.35;100.00
32330;BME280;18807;52.434;13.238;2022-11-02T23:07:38;101794.31;;;6.29;100.00
32330;BME280;18807;52.434;13.238;2022-11-02T23:15:12;101788.75;;;6.23;100.00
32330;BME280;18807;52.434;13.238;2022-11-02T23:22:47;101797.28;;;6.18;100.00
32330;BME280;18807;52.434;13.238;2022-11-02T23:30:39;101796.09;;;6.11;100.00
32330;BME280;18807;52.434;13.238;2022-11-02T23:38:32;101793.00;;;6.02;100.00
32330;BME280;18807;52.434;13.238;2022-11-02T23:46:19;101782.16;;;5.97;100.00
32330;BME280;18807;52.434;13.238;2022-11-02T23:53:55;101781.84;;;5.91;100.00
